Nippon Maru — JNNU — position and weather

sailwx.info

Track history (hours):
 
Tides and Currents Weather Stations Pressure Air Temp Water Temp Dewpoint Dewpoint Depression Visibility Wind Speed Wind Dir Waves Ship Positions

Nippon Maru

Last reported at 2019-May-20 13:37 UTC. Time now 2019-May-20 16:45 UTC.
Position N 33°50' E 135°02'.

Length 167 m; draft 6.5 m.

Type: Passenger vessel. MMSI: 431302000.

Date/timePositionNaut miles runAvg speedWind from/ knotsBaromVisibWave heightAir tempDewpointWater temp
2019-May-20 13:37N 33°50' E 135°02'216.7
2019-May-20 13:30N 33°51' E 135°01'815.2
2019-May-20 13:01N 33°58' E 134°58'816.4
2019-May-20 12:31N 34°06' E 134°59'816.7
2019-May-20 12:01N 34°14' E 134°59'714.8
2019-May-20 11:30N 34°22' E 134°59'815.9
2019-May-20 11:01N 34°29' E 135°01'713.7
2019-May-20 10:30N 34°36' E 135°02'611.1
2019-May-20 10:00N 34°36' E 134°55'714.8
2019-May-20 09:30N 34°32' E 134°47'815.9
2019-May-20 09:00N 34°29' E 134°39'917.0
2019-May-20 08:29N 34°26' E 134°29'917.8
2019-May-20 08:00N 34°24' E 134°19'  
2019-May-17 16:07N 35°02' E 139°37'215.8
2019-May-17 15:58N 35°03' E 139°39'816.2
2019-May-17 15:30N 35°09' E 139°45'713.3
2019-May-17 14:59N 35°16' E 139°46'612.4
2019-May-17 14:30N 35°21' E 139°42'713.1
2019-May-17 14:00N 35°27' E 139°40'1 2.2
2019-May-17 13:29N 35°27' E 139°39'0 0.0
2019-May-17 12:59N 35°27' E 139°39'0 0.0
2019-May-17 12:29N 35°27' E 139°39'0 0.0
2019-May-17 11:59N 35°27' E 139°39'0 0.0
2019-May-17 11:29N 35°27' E 139°39'0 0.0
2019-May-17 10:59N 35°27' E 139°39'0 0.0
2019-May-17 10:29N 35°27' E 139°39'0 0.0
2019-May-17 09:56N 35°27' E 139°39'0 0.0
2019-May-17 09:29N 35°27' E 139°39'0 0.0
2019-May-17 08:59N 35°27' E 139°39'0 0.0
2019-May-17 08:29N 35°27' E 139°39'0 0.3
2019-May-17 08:00N 35°27' E 139°39'4 7.1
2019-May-17 07:30N 35°26' E 139°43'1 2.7
2019-May-17 07:01N 35°25' E 139°44'611.2
2019-May-17 06:30N 35°19' E 139°44'612.1
2019-May-17 06:01N 35°13' E 139°47'815.4
2019-May-17 05:31N 35°06' E 139°45'24515.8
2019-May-16 14:00N 33°45' E 135°05'1018.2
2019-May-16 13:25N 33°54' E 134°58'818.3
2019-May-16 13:00N 34°02' E 134°58'918.3
2019-May-16 12:31N 34°11' E 134°58'917.6
2019-May-16 12:00N 34°20' E 134°59'917.5
2019-May-16 11:30N 34°29' E 135°01'815.2
2019-May-16 11:00N 34°36' E 135°02'713.8
2019-May-16 10:31N 34°35' E 134°54'815.9
2019-May-16 10:00N 34°32' E 134°45'816.4
2019-May-16 09:31N 34°29' E 134°36'816.6
2019-May-16 09:01N 34°26' E 134°27'7 0.9
2019-May-16 01:22N 34°26' E 134°19'4 8.6
2019-May-16 00:53N 34°24' E 134°15'  
2019-May-12 10:23N 35°03' E 139°39'715.7
2019-May-12 09:57N 35°09' E 139°44'512.3
2019-May-12 09:30N 35°14' E 139°46'612.8
2019-May-12 09:00N 35°20' E 139°43'713.7
2019-May-12 08:30N 35°26' E 139°42'2 4.9
2019-May-12 08:00N 35°27' E 139°39'0 0.1
2019-May-12 07:30N 35°27' E 139°39'0 0.0
2019-May-12 06:59N 35°27' E 139°39'0 0.0
2019-May-12 06:29N 35°27' E 139°39'0 0.0
2019-May-12 05:59N 35°27' E 139°39'0 0.0
2019-May-12 05:29N 35°27' E 139°39'0 0.0
2019-May-12 04:59N 35°27' E 139°39'0 0.0
2019-May-12 04:29N 35°27' E 139°39'0 0.0
2019-May-12 03:59N 35°27' E 139°39'0 0.0
2019-May-12 03:29N 35°27' E 139°39'0 0.0
2019-May-12 02:59N 35°27' E 139°39'0 0.0
2019-May-12 02:29N 35°27' E 139°39'0 0.0
2019-May-12 01:59N 35°27' E 139°39'0 0.0
2019-May-12 01:29N 35°27' E 139°39'0 0.0
2019-May-12 00:59N 35°27' E 139°39'0 0.0
2019-May-12 00:29N 35°27' E 139°39'0 0.0
2019-May-11 23:59N 35°27' E 139°39'0 0.2
2019-May-11 23:31N 35°27' E 139°39'3 5.0
2019-May-11 23:01N 35°26' E 139°42'3 6.7
2019-May-11 22:30N 35°23' E 139°43'611.4
2019-May-11 22:01N 35°18' E 139°45'612.3
2019-May-11 21:31N 35°12' E 139°47'5 9.8
2019-May-11 21:00N 35°07' E 139°45'4 7.9
2019-May-11 20:29N 35°04' E 139°41'24 4.2
2019-May-11 14:47N 35°06' E 139°12'1 0.6
2019-May-11 13:20N 35°07' E 139°12'10 8.4
2019-May-11 12:06N 35°10' E 139°24'5 9.5
2019-May-11 11:35N 35°08' E 139°29'110.1
2019-May-11 11:30N 35°08' E 139°30'6 9.7
2019-May-11 10:55N 35°06' E 139°37'4 9.6
2019-May-11 10:30N 35°07' E 139°42'5 9.0
2019-May-11 10:00N 35°10' E 139°45'510.7
2019-May-11 09:29N 35°16' E 139°46'612.4
2019-May-11 09:01N 35°21' E 139°42'611.2
2019-May-11 08:30N 35°27' E 139°42'2 4.4
2019-May-11 08:00N 35°27' E 139°39'0 0.2
2019-May-11 07:29N 35°27' E 139°39'0 0.0
2019-May-11 06:59N 35°27' E 139°39'0 0.0
2019-May-11 06:29N 35°27' E 139°39'0 0.0
2019-May-11 05:59N 35°27' E 139°39'0 0.0
2019-May-11 05:29N 35°27' E 139°39'0 0.0
2019-May-11 04:59N 35°27' E 139°39'0 0.0
2019-May-11 04:26N 35°27' E 139°39'0 0.0
2019-May-11 03:59N 35°27' E 139°39'0 0.0
2019-May-11 03:29N 35°27' E 139°39'0 0.0
2019-May-11 02:59N 35°27' E 139°39'0 0.0
2019-May-11 02:29N 35°27' E 139°39'0 0.0
2019-May-11 01:58N 35°27' E 139°39'0 0.0
2019-May-11 01:28N 35°27' E 139°39'0 0.0
2019-May-11 00:55N 35°27' E 139°39'0 0.0
2019-May-11 00:28N 35°27' E 139°39'0 0.0
2019-May-10 23:58N 35°27' E 139°39'1 1.4
2019-May-10 23:31N 35°27' E 139°39'4 8.2
2019-May-10 23:01N 35°25' E 139°43'612.1
2019-May-10 22:30N 35°19' E 139°44'612.5
2019-May-10 22:01N 35°13' E 139°47'612.4
2019-May-10 21:30N 35°07' E 139°45'917.1
2019-May-10 21:00N 34°59' E 139°42'1014.6
2019-May-10 20:20N 34°49' E 139°44'  
Track history (hours):
 
Tides and Currents Weather Stations Pressure Air Temp Water Temp Dewpoint Dewpoint Depression Visibility Wind Speed Wind Dir Waves Ship Positions

Nippon Maru

Last reported at 2019-May-20 13:37 UTC. Time now 2019-May-20 16:45 UTC.
Position N 33°50' E 135°02'.

Length 167 m; draft 6.5 m.

Type: Passenger vessel. MMSI: 431302000.

Date/timePositionNaut miles runAvg speedWind from/ knotsBaromVisibWave heightAir tempDewpointWater temp
2019-May-20 13:37N 33°50' E 135°02'216.7
2019-May-20 13:30N 33°51' E 135°01'815.2
2019-May-20 13:01N 33°58' E 134°58'816.4
2019-May-20 12:31N 34°06' E 134°59'816.7
2019-May-20 12:01N 34°14' E 134°59'714.8
2019-May-20 11:30N 34°22' E 134°59'815.9
2019-May-20 11:01N 34°29' E 135°01'713.7
2019-May-20 10:30N 34°36' E 135°02'611.1
2019-May-20 10:00N 34°36' E 134°55'714.8
2019-May-20 09:30N 34°32' E 134°47'815.9
2019-May-20 09:00N 34°29' E 134°39'917.0
2019-May-20 08:29N 34°26' E 134°29'917.8
2019-May-20 08:00N 34°24' E 134°19'  
2019-May-17 16:07N 35°02' E 139°37'215.8
2019-May-17 15:58N 35°03' E 139°39'816.2
2019-May-17 15:30N 35°09' E 139°45'713.3
2019-May-17 14:59N 35°16' E 139°46'612.4
2019-May-17 14:30N 35°21' E 139°42'713.1
2019-May-17 14:00N 35°27' E 139°40'1 2.2
2019-May-17 13:29N 35°27' E 139°39'0 0.0
2019-May-17 12:59N 35°27' E 139°39'0 0.0
2019-May-17 12:29N 35°27' E 139°39'0 0.0
2019-May-17 11:59N 35°27' E 139°39'0 0.0
2019-May-17 11:29N 35°27' E 139°39'0 0.0
2019-May-17 10:59N 35°27' E 139°39'0 0.0
2019-May-17 10:29N 35°27' E 139°39'0 0.0
2019-May-17 09:56N 35°27' E 139°39'0 0.0
2019-May-17 09:29N 35°27' E 139°39'0 0.0
2019-May-17 08:59N 35°27' E 139°39'0 0.0
2019-May-17 08:29N 35°27' E 139°39'0 0.3
2019-May-17 08:00N 35°27' E 139°39'4 7.1
2019-May-17 07:30N 35°26' E 139°43'1 2.7
2019-May-17 07:01N 35°25' E 139°44'611.2
2019-May-17 06:30N 35°19' E 139°44'612.1
2019-May-17 06:01N 35°13' E 139°47'815.4
2019-May-17 05:31N 35°06' E 139°45'24515.8
2019-May-16 14:00N 33°45' E 135°05'1018.2
2019-May-16 13:25N 33°54' E 134°58'818.3
2019-May-16 13:00N 34°02' E 134°58'918.3
2019-May-16 12:31N 34°11' E 134°58'917.6
2019-May-16 12:00N 34°20' E 134°59'917.5
2019-May-16 11:30N 34°29' E 135°01'815.2
2019-May-16 11:00N 34°36' E 135°02'713.8
2019-May-16 10:31N 34°35' E 134°54'815.9
2019-May-16 10:00N 34°32' E 134°45'816.4
2019-May-16 09:31N 34°29' E 134°36'816.6
2019-May-16 09:01N 34°26' E 134°27'7 0.9
2019-May-16 01:22N 34°26' E 134°19'4 8.6
2019-May-16 00:53N 34°24' E 134°15'  
2019-May-12 10:23N 35°03' E 139°39'715.7
2019-May-12 09:57N 35°09' E 139°44'512.3
2019-May-12 09:30N 35°14' E 139°46'612.8
2019-May-12 09:00N 35°20' E 139°43'713.7
2019-May-12 08:30N 35°26' E 139°42'2 4.9
2019-May-12 08:00N 35°27' E 139°39'0 0.1
2019-May-12 07:30N 35°27' E 139°39'0 0.0
2019-May-12 06:59N 35°27' E 139°39'0 0.0
2019-May-12 06:29N 35°27' E 139°39'0 0.0
2019-May-12 05:59N 35°27' E 139°39'0 0.0
2019-May-12 05:29N 35°27' E 139°39'0 0.0
2019-May-12 04:59N 35°27' E 139°39'0 0.0
2019-May-12 04:29N 35°27' E 139°39'0 0.0
2019-May-12 03:59N 35°27' E 139°39'0 0.0
2019-May-12 03:29N 35°27' E 139°39'0 0.0
2019-May-12 02:59N 35°27' E 139°39'0 0.0
2019-May-12 02:29N 35°27' E 139°39'0 0.0
2019-May-12 01:59N 35°27' E 139°39'0 0.0
2019-May-12 01:29N 35°27' E 139°39'0 0.0
2019-May-12 00:59N 35°27' E 139°39'0 0.0
2019-May-12 00:29N 35°27' E 139°39'0 0.0
2019-May-11 23:59N 35°27' E 139°39'0 0.2
2019-May-11 23:31N 35°27' E 139°39'3 5.0
2019-May-11 23:01N 35°26' E 139°42'3 6.7
2019-May-11 22:30N 35°23' E 139°43'611.4
2019-May-11 22:01N 35°18' E 139°45'612.3
2019-May-11 21:31N 35°12' E 139°47'5 9.8
2019-May-11 21:00N 35°07' E 139°45'4 7.9
2019-May-11 20:29N 35°04' E 139°41'24 4.2
2019-May-11 14:47N 35°06' E 139°12'1 0.6
2019-May-11 13:20N 35°07' E 139°12'10 8.4
2019-May-11 12:06N 35°10' E 139°24'5 9.5
2019-May-11 11:35N 35°08' E 139°29'110.1
2019-May-11 11:30N 35°08' E 139°30'6 9.7
2019-May-11 10:55N 35°06' E 139°37'4 9.6
2019-May-11 10:30N 35°07' E 139°42'5 9.0
2019-May-11 10:00N 35°10' E 139°45'510.7
2019-May-11 09:29N 35°16' E 139°46'612.4
2019-May-11 09:01N 35°21' E 139°42'611.2
2019-May-11 08:30N 35°27' E 139°42'2 4.4
2019-May-11 08:00N 35°27' E 139°39'0 0.2
2019-May-11 07:29N 35°27' E 139°39'0 0.0
2019-May-11 06:59N 35°27' E 139°39'0 0.0
2019-May-11 06:29N 35°27' E 139°39'0 0.0
2019-May-11 05:59N 35°27' E 139°39'0 0.0
2019-May-11 05:29N 35°27' E 139°39'0 0.0
2019-May-11 04:59N 35°27' E 139°39'0 0.0
2019-May-11 04:26N 35°27' E 139°39'0 0.0
2019-May-11 03:59N 35°27' E 139°39'0 0.0
2019-May-11 03:29N 35°27' E 139°39'0 0.0
2019-May-11 02:59N 35°27' E 139°39'0 0.0
2019-May-11 02:29N 35°27' E 139°39'0 0.0
2019-May-11 01:58N 35°27' E 139°39'0 0.0
2019-May-11 01:28N 35°27' E 139°39'0 0.0
2019-May-11 00:55N 35°27' E 139°39'0 0.0
2019-May-11 00:28N 35°27' E 139°39'0 0.0
2019-May-10 23:58N 35°27' E 139°39'1 1.4
2019-May-10 23:31N 35°27' E 139°39'4 8.2
2019-May-10 23:01N 35°25' E 139°43'612.1
2019-May-10 22:30N 35°19' E 139°44'612.5
2019-May-10 22:01N 35°13' E 139°47'612.4
2019-May-10 21:30N 35°07' E 139°45'917.1
2019-May-10 21:00N 34°59' E 139°42'1014.6
2019-May-10 20:20N 34°49' E 139°44'  

Dump ship's entire track history